Time;durP1;ratioP1;P1;durP2;ratioP2;P2;SDS_P1;SDS_P2;PMS_P1;PMS_P2;Temp;Humidity;BMP_temperature;BMP_pressure;BME280_temperature;BME280_humidity;BME280_pressure;Samples;Min_cycle;Max_cycle;Signal;HPM_P1;HPM_P2
2021/04/21 04:12:40;;;;;;;0.88;0.88;;;9.60;99.90;;;;;;4910349;29;20214;-77
2021/04/21 04:15:09;;;;;;;0.80;0.80;;;9.60;99.90;;;;;;4908571;29;20353;-77
2021/04/21 04:17:38;;;;;;;0.88;0.88;;;9.40;99.90;;;;;;4916117;29;20229;-78
2021/04/21 04:20:07;;;;;;;0.85;0.85;;;9.50;99.90;;;;;;4915545;29;20281;-78
2021/04/21 04:22:41;;;;;;;0.80;0.80;;;9.50;99.90;;;;;;4896136;29;20676;-77
2021/04/21 04:25:12;;;;;;;0.90;0.90;;;9.60;99.90;;;;;;4898803;29;20263;-77
2021/04/21 04:27:41;;;;;;;0.80;0.80;;;9.50;99.90;;;;;;4898270;29;20676;-78
2021/04/21 04:30:10;;;;;;;0.85;0.85;;;9.60;99.90;;;;;;4893216;29;20280;-77
2021/04/21 04:32:40;;;;;;;0.85;0.85;;;9.60;99.90;;;;;;4897938;29;20259;-78
2021/04/21 04:35:09;;;;;;;0.82;0.82;;;9.50;99.90;;;;;;4898783;29;20214;-78
2021/04/21 04:37:39;;;;;;;0.90;0.90;;;9.60;99.90;;;;;;4894721;29;20212;-78
2021/04/21 04:40:09;;;;;;;0.98;0.98;;;9.40;99.90;;;;;;4890198;29;20212;-78
2021/04/21 04:42:37;;;;;;;0.90;0.90;;;9.50;99.90;;;;;;4887097;29;20203;-78
2021/04/21 04:45:07;;;;;;;0.80;0.80;;;9.50;99.90;;;;;;4900759;29;20195;-77
2021/04/21 04:47:43;;;;;;;0.98;0.98;;;9.40;99.90;;;;;;4898143;29;20215;-77
2021/04/21 04:50:12;;;;;;;0.90;0.90;;;9.40;99.90;;;;;;4896805;29;20656;-77
2021/04/21 04:52:40;;;;;;;0.95;0.95;;;9.60;99.90;;;;;;4893247;29;20199;-75
2021/04/21 04:55:09;;;;;;;0.80;0.80;;;9.60;99.90;;;;;;4896636;29;20612;-77
2021/04/21 04:57:40;;;;;;;0.90;0.90;;;8.90;99.90;;;;;;4897469;29;20211;-76
2021/04/21 05:00:09;;;;;;;0.90;0.90;;;9.50;99.90;;;;;;4898136;29;20612;-76
2021/04/21 05:02:40;;;;;;;0.80;0.80;;;9.50;99.90;;;;;;4896641;29;20238;-76
2021/04/21 05:05:09;;;;;;;0.85;0.85;;;9.20;99.90;;;;;;4896198;29;20267;-77
2021/04/21 05:07:43;;;;;;;0.90;0.90;;;9.10;99.90;;;;;;4896341;29;20207;-77
2021/04/21 05:10:18;;;;;;;1.10;1.10;;;9.70;99.90;;;;;;4897826;29;20254;-77
2021/04/21 05:12:50;;;;;;;0.80;0.80;;;9.70;99.90;;;;;;4898364;29;20215;-77
2021/04/21 05:15:59;;;;;;;0.80;0.80;;;9.90;99.90;;;;;;4897861;29;20216;-77
2021/04/21 05:19:16;;;;;;;0.70;0.70;;;10.10;99.90;;;;;;4897199;29;20231;-77
2021/04/21 05:22:33;;;;;;;0.80;0.80;;;10.20;99.90;;;;;;4898701;29;20295;-76
2021/04/21 05:25:58;;;;;;;0.80;0.80;;;10.30;99.90;;;;;;4900197;29;20669;-77
2021/04/21 05:28:53;;;;;;;0.73;0.73;;;10.60;99.90;;;;;;4900336;29;20203;-76
2021/04/21 05:31:57;;;;;;;0.70;0.70;;;10.60;99.90;;;;;;4898192;29;20228;-77
2021/04/21 05:35:29;;;;;;;0.70;0.70;;;10.70;99.90;;;;;;4899398;29;20207;-77
2021/04/21 05:38:29;;;;;;;0.70;0.70;;;10.80;99.90;;;;;;4900845;29;20639;-77
2021/04/21 05:41:09;;;;;;;0.70;0.70;;;10.80;99.90;;;;;;4900551;29;20223;-77
2021/04/21 05:44:23;;;;;;;0.70;0.70;;;10.90;99.90;;;;;;4901043;29;20215;-77
2021/04/21 05:47:50;;;;;;;0.70;0.70;;;11.00;99.90;;;;;;4901111;29;20215;-77
2021/04/21 05:50:59;;;;;;;0.80;0.80;;;11.30;99.90;;;;;;4861539;29;20713;-77
2021/04/21 05:54:02;;;;;;;0.80;0.80;;;11.30;99.90;;;;;;4861862;29;20209;-77
2021/04/21 05:57:12;;;;;;;0.80;0.80;;;11.40;99.90;;;;;;4896364;29;20222;-77
2021/04/21 06:00:09;;;;;;;0.60;0.60;;;11.60;99.90;;;;;;4900956;29;20227;-77
2021/04/21 06:02:37;;;;;;;0.70;0.70;;;11.70;99.90;;;;;;4880903;29;20275;-76
2021/04/21 06:05:06;;;;;;;0.60;0.60;;;11.60;99.90;;;;;;4898883;29;20208;-76
2021/04/21 06:07:34;;;;;;;0.70;0.70;;;11.70;99.90;;;;;;4900380;29;20620;-77
2021/04/21 06:10:19;;;;;;;0.80;0.80;;;11.80;99.90;;;;;;4908593;29;20203;-77
2021/04/21 06:12:46;;;;;;;0.60;0.60;;;11.90;99.90;;;;;;4904305;29;20223;-77
2021/04/21 06:15:14;;;;;;;0.70;0.70;;;11.90;99.90;;;;;;4900809;29;20207;-77
2021/04/21 06:17:43;;;;;;;0.70;0.70;;;12.00;99.90;;;;;;4900890;29;20263;-77
2021/04/21 06:20:15;;;;;;;0.70;0.70;;;12.00;99.90;;;;;;4901870;29;20227;-78
2021/04/21 06:22:43;;;;;;;0.70;0.70;;;12.10;99.90;;;;;;4902989;29;20215;-77
2021/04/21 06:25:12;;;;;;;0.60;0.60;;;12.30;99.90;;;;;;4900525;29;20661;-77
2021/04/21 06:27:39;;;;;;;0.50;0.50;;;12.20;99.90;;;;;;4900754;29;20271;-76
2021/04/21 06:30:07;;;;;;;0.70;0.70;;;12.20;99.90;;;;;;4900243;29;20203;-77
2021/04/21 06:32:35;;;;;;;0.60;0.60;;;12.20;99.90;;;;;;4900158;29;20695;-77
2021/04/21 06:35:07;;;;;;;0.60;0.60;;;12.20;99.90;;;;;;4899679;29;20211;-77
2021/04/21 06:37:36;;;;;;;0.60;0.60;;;12.30;99.90;;;;;;4899640;29;20282;-76
2021/04/21 06:40:06;;;;;;;0.60;0.60;;;12.30;99.90;;;;;;4899897;29;20227;-77
2021/04/21 06:42:34;;;;;;;0.60;0.60;;;12.40;99.90;;;;;;4898702;29;20251;-76
2021/04/21 06:45:01;;;;;;;0.60;0.60;;;12.50;99.90;;;;;;4897197;29;20267;-76
2021/04/21 06:47:29;;;;;;;0.60;0.60;;;12.30;99.90;;;;;;4897786;29;20207;-76
2021/04/21 06:50:00;;;;;;;0.60;0.60;;;12.40;99.90;;;;;;4899437;29;20586;-77
2021/04/21 06:52:34;;;;;;;0.65;0.65;;;12.30;99.90;;;;;;4899608;29;20231;-77
2021/04/21 06:55:04;;;;;;;0.60;0.60;;;12.50;99.90;;;;;;4899320;29;20204;-77
2021/04/21 06:57:32;;;;;;;0.70;0.70;;;12.70;99.90;;;;;;4899635;29;20211;-78
2021/04/21 07:00:04;;;;;;;0.60;0.60;;;12.70;99.90;;;;;;4903494;29;20234;-78
2021/04/21 07:02:36;;;;;;;0.60;0.60;;;12.80;99.90;;;;;;4903080;29;20278;-78
2021/04/21 07:05:05;;;;;;;0.50;0.50;;;13.10;99.90;;;;;;4902637;29;20208;-78
2021/04/21 07:07:32;;;;;;;0.60;0.60;;;13.40;99.90;;;;;;4902650;29;20627;-77
2021/04/21 07:09:59;;;;;;;0.70;0.70;;;13.40;99.90;;;;;;4904135;29;20199;-78
2021/04/21 07:12:27;;;;;;;0.60;0.60;;;13.30;99.90;;;;;;4901551;29;20254;-77
2021/04/21 07:14:54;;;;;;;0.70;0.70;;;13.40;99.90;;;;;;4899179;29;20653;-77
2021/04/21 07:17:21;;;;;;;0.60;0.60;;;13.50;99.90;;;;;;4899657;29;20207;-77
2021/04/21 07:19:48;;;;;;;0.60;0.60;;;13.60;99.90;;;;;;4899179;29;20322;-77
2021/04/21 07:22:17;;;;;;;0.63;0.63;;;13.50;99.90;;;;;;4899767;29;20708;-77
2021/04/21 07:24:45;;;;;;;0.73;0.73;;;13.30;99.90;;;;;;4899172;29;20588;-77
2021/04/21 07:27:13;;;;;;;0.65;0.65;;;13.20;99.90;;;;;;4898801;29;20219;-76
2021/04/21 07:29:44;;;;;;;0.68;0.68;;;13.40;99.90;;;;;;4897121;29;20660;-77
2021/04/21 07:32:23;;;;;;;0.60;0.60;;;13.60;99.90;;;;;;4897224;29;20717;-77
2021/04/21 07:34:58;;;;;;;0.40;0.40;;;13.70;99.90;;;;;;4897423;29;20211;-77
2021/04/21 07:37:38;;;;;;;0.50;0.50;;;13.50;99.90;;;;;;4897619;29;20202;-77
2021/04/21 07:40:36;;;;;;;0.50;0.50;;;13.50;99.90;;;;;;4897087;29;20265;-77
2021/04/21 07:43:10;;;;;;;0.63;0.63;;;13.50;99.90;;;;;;4857508;29;20205;-77
2021/04/21 07:45:50;;;;;;;0.70;0.70;;;13.40;99.90;;;;;;4890097;29;20211;-77
2021/04/21 07:48:45;;;;;;;0.60;0.60;;;13.50;99.90;;;;;;4896870;29;20211;-76
2021/04/21 07:51:39;;;;;;;0.50;0.50;;;13.60;99.90;;;;;;4897242;29;20242;-76
2021/04/21 07:54:18;;;;;;;0.60;0.60;;;13.40;99.90;;;;;;4897208;29;20262;-77
2021/04/21 07:56:57;;;;;;;0.60;0.60;;;13.50;99.90;;;;;;4897236;29;20210;-76
2021/04/21 07:59:26;;;;;;;0.50;0.50;;;13.60;99.90;;;;;;4898636;29;20279;-77
2021/04/21 08:02:00;;;;;;;0.70;0.70;;;13.80;99.90;;;;;;4897880;29;20227;-75
2021/04/21 08:04:28;;;;;;;0.60;0.60;;;13.90;99.90;;;;;;4899120;29;20284;-77
2021/04/21 08:06:57;;;;;;;0.50;0.50;;;14.00;99.90;;;;;;4900381;29;20274;-77
2021/04/21 08:09:25;;;;;;;0.60;0.60;;;14.00;99.90;;;;;;4900341;29;20207;-77
2021/04/21 08:12:10;;;;;;;0.60;0.60;;;14.00;99.90;;;;;;4899860;29;20318;-77
2021/04/21 08:14:44;;;;;;;0.50;0.50;;;14.10;99.90;;;;;;4899861;29;20211;-77
2021/04/21 08:17:12;;;;;;;0.50;0.50;;;14.20;99.90;;;;;;4898745;29;20218;-77
2021/04/21 08:19:41;;;;;;;0.60;0.60;;;14.10;99.90;;;;;;4900785;29;20227;-77
2021/04/21 08:22:09;;;;;;;0.50;0.50;;;14.20;99.90;;;;;;4900207;29;20233;-77
2021/04/21 08:24:44;;;;;;;0.50;0.50;;;14.10;99.90;;;;;;4898355;29;20218;-77
2021/04/21 08:27:14;;;;;;;0.60;0.60;;;14.10;99.90;;;;;;4899720;29;20297;-77
2021/04/21 08:29:41;;;;;;;0.50;0.50;;;14.10;99.90;;;;;;4900227;29;20203;-77
2021/04/21 08:32:11;;;;;;;0.55;0.55;;;14.40;99.90;;;;;;4900317;29;20235;-77
2021/04/21 08:34:39;;;;;;;0.50;0.50;;;14.30;99.90;;;;;;4900535;29;20589;-77
2021/04/21 08:37:06;;;;;;;0.60;0.60;;;14.30;99.90;;;;;;4899477;29;20207;-77
2021/04/21 08:39:37;;;;;;;0.60;0.60;;;14.40;99.90;;;;;;4900176;29;20243;-77
2021/04/21 08:42:07;;;;;;;0.60;0.60;;;14.20;99.90;;;;;;4900189;29;20642;-77
2021/04/21 08:44:40;;;;;;;0.63;0.63;;;14.10;99.90;;;;;;4899802;29;20230;-77
2021/04/21 08:47:08;;;;;;;0.60;0.60;;;14.10;99.90;;;;;;4901652;29;20211;-77
2021/04/21 08:49:37;;;;;;;0.60;0.60;;;14.10;99.90;;;;;;4899530;29;20240;-77
2021/04/21 08:52:05;;;;;;;0.50;0.50;;;14.20;99.90;;;;;;4899371;29;20279;-77
2021/04/21 08:54:33;;;;;;;0.60;0.60;;;14.30;99.90;;;;;;4899965;29;20632;-77
2021/04/21 08:57:01;;;;;;;0.60;0.60;;;14.20;99.90;;;;;;4899430;29;20207;-77
2021/04/21 08:59:28;;;;;;;0.55;0.55;;;14.10;99.90;;;;;;4899134;29;20697;-77
2021/04/21 09:01:56;;;;;;;0.50;0.50;;;14.20;99.90;;;;;;4895990;29;20223;-76
2021/04/21 09:04:23;;;;;;;0.50;0.50;;;14.30;99.90;;;;;;4895874;29;20253;-76
2021/04/21 09:06:51;;;;;;;0.60;0.60;;;14.50;99.90;;;;;;4896162;29;20208;-76
2021/04/21 09:09:18;;;;;;;0.50;0.50;;;14.50;99.90;;;;;;4897947;29;20262;-76
2021/04/21 09:11:46;;;;;;;0.50;0.50;;;14.50;99.90;;;;;;4899281;29;20310;-75
2021/04/21 09:14:14;;;;;;;0.47;0.47;;;14.60;99.90;;;;;;4899770;29;20207;-76
2021/04/21 09:16:41;;;;;;;0.50;0.50;;;;;;;;;;4899872;29;20207;-76
2021/04/21 09:19:13;;;;;;;0.50;0.50;;;14.60;99.50;;;;;;4899449;29;20220;-77
2021/04/21 09:21:41;;;;;;;0.40;0.40;;;14.60;99.90;;;;;;4899191;29;20765;-77
2021/04/21 09:24:13;;;;;;;0.40;0.40;;;14.60;99.90;;;;;;4900416;29;20207;-77
2021/04/21 09:26:40;;;;;;;0.50;0.50;;;14.70;99.90;;;;;;4901404;29;20624;-76
2021/04/21 09:29:07;;;;;;;0.40;0.40;;;14.90;99.90;;;;;;4899873;29;20204;-76
2021/04/21 09:31:34;;;;;;;0.50;0.50;;;14.90;99.90;;;;;;4899020;29;20288;-76
2021/04/21 09:34:11;;;;;;;0.50;0.50;;;14.90;98.80;;;;;;4901262;29;20650;-77
2021/04/21 09:36:40;;;;;;;0.50;0.50;;;14.80;98.80;;;;;;4899101;29;20211;-77
2021/04/21 09:39:13;;;;;;;0.40;0.40;;;15.10;97.60;;;;;;4900398;29;20227;-76
2021/04/21 09:41:40;;;;;;;0.50;0.50;;;15.10;98.50;;;;;;4900875;29;20255;-76
2021/04/21 09:44:20;;;;;;;0.50;0.50;;;15.30;98.00;;;;;;4899583;29;20215;-76
2021/04/21 09:46:49;;;;;;;0.50;0.50;;;15.40;97.00;;;;;;4899267;29;20207;-76
2021/04/21 09:49:33;;;;;;;0.40;0.40;;;15.60;97.00;;;;;;4899026;29;20218;-76
2021/04/21 09:52:03;;;;;;;0.50;0.50;;;15.40;96.50;;;;;;4899086;29;20233;-76
2021/04/21 09:54:32;;;;;;;0.40;0.40;;;15.40;94.90;;;;;;4898946;29;20211;-76
2021/04/21 09:57:15;;;;;;;0.50;0.50;;;15.40;96.80;;;;;;4899072;29;20215;-76
2021/04/21 09:59:57;;;;;;;0.40;0.40;;;15.40;97.00;;;;;;4899177;29;20286;-76
2021/04/21 10:02:34;;;;;;;0.50;0.50;;;15.10;96.90;;;;;;4898644;29;20227;-76
2021/04/21 10:05:27;;;;;;;0.40;0.40;;;15.20;97.70;;;;;;4898784;29;20207;-76
2021/04/21 10:08:15;;;;;;;0.50;0.50;;;15.20;95.30;;;;;;4899142;29;20211;-76
2021/04/21 10:10:46;;;;;;;0.43;0.43;;;15.00;96.20;;;;;;4898858;29;20243;-76
2021/04/21 10:13:18;;;;;;;0.50;0.50;;;15.10;95.60;;;;;;4898834;29;20637;-76
2021/04/21 10:16:06;;;;;;;0.50;0.50;;;15.20;94.60;;;;;;4898374;29;20207;-76
2021/04/21 10:18:33;;;;;;;0.40;0.40;;;15.10;95.80;;;;;;4898871;29;20275;-77
2021/04/21 10:21:00;;;;;;;0.50;0.50;;;15.20;95.10;;;;;;4897746;29;20223;-77
2021/04/21 10:23:28;;;;;;;0.40;0.40;;;15.20;95.40;;;;;;4928361;23;20223;-75
2021/04/21 10:26:01;;;;;;;0.50;0.50;;;14.90;95.20;;;;;;4955634;29;20209;-77
2021/04/21 10:28:28;;;;;;;0.50;0.50;;;15.30;93.30;;;;;;4956183;29;20304;-77
2021/04/21 10:30:55;;;;;;;0.50;0.50;;;15.40;91.90;;;;;;4956287;29;20264;-76
2021/04/21 10:33:26;;;;;;;0.50;0.50;;;15.50;93.20;;;;;;4950295;29;20268;-76
2021/04/21 10:35:52;;;;;;;0.50;0.50;;;15.80;90.90;;;;;;4937761;29;20742;-77
2021/04/21 10:38:23;;;;;;;0.47;0.47;;;15.70;88.40;;;;;;4939993;29;20260;-76
2021/04/21 10:40:51;;;;;;;0.50;0.50;;;15.70;89.60;;;;;;4939671;29;20226;-77
2021/04/21 10:43:39;;;;;;;0.50;0.50;;;15.60;90.90;;;;;;4939038;29;20226;-77
2021/04/21 10:46:06;;;;;;;0.50;0.50;;;15.70;90.00;;;;;;4939168;29;20210;-77
2021/04/21 10:48:38;;;;;;;0.40;0.40;;;15.70;87.50;;;;;;4937798;29;20205;-77
2021/04/21 10:51:32;;;;;;;0.43;0.43;;;15.90;87.00;;;;;;4936155;29;20675;-77
2021/04/21 10:54:04;;;;;;;0.43;0.43;;;15.80;85.90;;;;;;4936721;29;20300;-77
2021/04/21 10:56:31;;;;;;;0.50;0.50;;;15.90;87.30;;;;;;4935805;29;20206;-77
2021/04/21 10:59:01;;;;;;;0.40;0.40;;;15.90;85.70;;;;;;4936067;29;20210;-76
2021/04/21 11:01:30;;;;;;;0.50;0.50;;;16.10;85.10;;;;;;4935869;29;20730;-75
2021/04/21 11:03:57;;;;;;;0.40;0.40;;;16.00;85.40;;;;;;4935821;29;20328;-76
2021/04/21 11:06:46;;;;;;;0.40;0.40;;;16.00;84.80;;;;;;4936094;29;20214;-77
2021/04/21 11:09:16;;;;;;;0.50;0.50;;;16.00;78.40;;;;;;4935799;29;20201;-76
2021/04/21 11:11:47;;;;;;;0.40;0.40;;;16.00;81.10;;;;;;4935504;29;20266;-78
2021/04/21 11:14:16;;;;;;;0.47;0.47;;;16.20;83.90;;;;;;4936158;29;20495;-75
2021/04/21 11:16:44;;;;;;;0.30;0.30;;;16.20;80.00;;;;;;4935839;29;20206;-76
2021/04/21 11:19:28;;;;;;;0.40;0.40;;;16.10;81.60;;;;;;4935802;29;20769;-76
2021/04/21 11:22:18;;;;;;;0.50;0.50;;;16.20;81.30;;;;;;4936073;29;20206;-76
2021/04/21 11:25:25;;;;;;;0.50;0.50;;;16.40;82.70;;;;;;4935555;29;20237;-76
2021/04/21 11:27:53;;;;;;;0.40;0.40;;;16.50;81.70;;;;;;4936146;29;20210;-76
2021/04/21 11:30:59;;;;;;;0.40;0.40;;;16.50;82.10;;;;;;4935402;29;20237;-75
2021/04/21 11:33:53;;;;;;;0.40;0.40;;;16.40;80.60;;;;;;4935117;29;20685;-75
2021/04/21 11:36:53;;;;;;;0.40;0.40;;;16.30;79.80;;;;;;4934142;29;20206;-76
2021/04/21 11:40:08;;;;;;;0.40;0.40;;;16.50;79.40;;;;;;4934229;29;20234;-76
2021/04/21 11:42:43;;;;;;;0.40;0.40;;;16.60;79.40;;;;;;4935296;29;20271;-76
2021/04/21 11:45:28;;;;;;;0.50;0.50;;;16.60;80.00;;;;;;4933430;29;20210;-76
2021/04/21 11:48:12;;;;;;;0.45;0.45;;;16.90;78.90;;;;;;4935243;29;20201;-77
2021/04/21 11:50:42;;;;;;;0.40;0.40;;;17.20;79.20;;;;;;4936530;29;20217;-77
2021/04/21 11:53:14;;;;;;;0.40;0.40;;;17.20;77.00;;;;;;4938606;29;20272;-77
2021/04/21 11:55:54;;;;;;;0.40;0.40;;;17.20;77.00;;;;;;4936211;29;20210;-76
2021/04/21 11:58:23;;;;;;;0.40;0.40;;;17.10;76.10;;;;;;4935664;29;20741;-76
2021/04/21 12:00:52;;;;;;;0.40;0.40;;;17.40;76.10;;;;;;4935501;29;20225;-77
2021/04/21 12:03:21;;;;;;;0.40;0.40;;;17.60;76.40;;;;;;4935149;29;20721;-76
2021/04/21 12:05:52;;;;;;;0.50;0.50;;;17.50;72.90;;;;;;4935189;29;20311;-76
2021/04/21 12:08:20;;;;;;;0.30;0.30;;;17.50;73.10;;;;;;4934949;29;20218;-76
2021/04/21 12:10:49;;;;;;;0.40;0.40;;;17.70;74.00;;;;;;4934929;29;20671;-76
2021/04/21 12:13:27;;;;;;;0.30;0.30;;;17.70;73.40;;;;;;4934601;29;20222;-75
2021/04/21 12:15:59;;;;;;;0.30;0.30;;;17.40;86.80;;;;;;4935000;29;20213;-75
2021/04/21 12:18:38;;;;;;;0.40;0.40;;;17.60;71.00;;;;;;4934909;29;20836;-75
2021/04/21 12:21:22;;;;;;;0.40;0.40;;;17.70;71.80;;;;;;4935324;29;20602;-77
2021/04/21 12:23:50;;;;;;;0.30;0.30;;;17.90;70.80;;;;;;4935257;29;20680;-76
2021/04/21 12:26:19;;;;;;;0.40;0.40;;;18.00;84.00;;;;;;4934421;29;20209;-76
2021/04/21 12:28:48;;;;;;;0.40;0.40;;;18.10;69.40;;;;;;4933810;29;20638;-76
2021/04/21 12:31:16;;;;;;;0.45;0.45;;;17.70;68.60;;;;;;4936051;29;20257;-76
2021/04/21 12:33:43;;;;;;;0.40;0.40;;;17.60;70.20;;;;;;4936092;29;20226;-77
2021/04/21 12:36:12;;;;;;;0.30;0.30;;;17.70;69.30;;;;;;4933888;29;20206;-77
2021/04/21 12:38:40;;;;;;;0.57;0.57;;;17.40;69.40;;;;;;4934246;29;20213;-77
2021/04/21 12:41:18;;;;;;;0.40;0.40;;;17.30;69.00;;;;;;4934260;29;20222;-76
2021/04/21 12:43:45;;;;;;;0.50;0.50;;;17.30;65.70;;;;;;4938030;29;20312;-75
2021/04/21 12:46:14;;;;;;;0.40;0.40;;;17.40;68.00;;;;;;4939196;29;20210;-76
2021/04/21 12:49:01;;;;;;;0.40;0.40;;;17.70;64.50;;;;;;4940505;29;20231;-76
2021/04/21 12:51:31;;;;;;;0.40;0.40;;;17.70;65.10;;;;;;4940553;29;20395;-77
2021/04/21 12:53:59;;;;;;;0.40;0.40;;;17.60;68.60;;;;;;4940401;29;20218;-77
2021/04/21 12:56:36;;;;;;;0.50;0.50;;;17.60;68.90;;;;;;4939739;29;20467;-77
2021/04/21 12:59:14;;;;;;;0.50;0.50;;;17.80;68.00;;;;;;4938951;29;20197;-77
2021/04/21 13:01:41;;;;;;;0.40;0.40;;;17.70;65.10;;;;;;4938573;29;20662;-76
2021/04/21 13:04:11;;;;;;;0.50;0.50;;;17.50;64.60;;;;;;4941037;29;20226;-77
2021/04/21 13:06:41;;;;;;;0.40;0.40;;;17.90;65.60;;;;;;4940886;29;20210;-75
2021/04/21 13:09:11;;;;;;;0.40;0.40;;;18.00;62.20;;;;;;4940281;29;20310;-76
2021/04/21 13:11:39;;;;;;;0.50;0.50;;;18.00;63.70;;;;;;4941133;29;20214;-76
2021/04/21 13:14:07;;;;;;;0.32;0.32;;;17.90;61.40;;;;;;4940881;29;20220;-77
2021/04/21 13:16:37;;;;;;;0.40;0.40;;;18.00;58.80;;;;;;4942178;29;20506;-77
2021/04/21 13:19:26;;;;;;;0.30;0.30;;;18.10;58.00;;;;;;4941132;29;20202;-76
2021/04/21 13:22:06;;;;;;;0.40;0.40;;;18.20;59.80;;;;;;4940736;29;20214;-76
2021/04/21 13:24:43;;;;;;;0.30;0.30;;;18.20;55.00;;;;;;4940914;29;20222;-76
2021/04/21 13:27:22;;;;;;;0.30;0.30;;;18.30;55.40;;;;;;4940748;29;20197;-77
2021/04/21 13:30:11;;;;;;;0.50;0.50;;;18.50;57.20;;;;;;4941534;29;20205;-77
2021/04/21 13:32:40;;;;;;;0.50;0.50;;;18.80;69.50;;;;;;4938509;29;20671;-77
2021/04/21 13:35:08;;;;;;;0.30;0.30;;;18.50;56.50;;;;;;4941619;29;20194;-77
2021/04/21 13:37:36;;;;;;;0.30;0.30;;;18.60;56.50;;;;;;4942243;29;20202;-77
2021/04/21 13:40:09;;;;;;;0.40;0.40;;;18.70;57.10;;;;;;4941990;29;20226;-77
2021/04/21 13:42:37;;;;;;;0.40;0.40;;;18.60;55.40;;;;;;4941233;29;20210;-77
2021/04/21 13:45:07;;;;;;;0.30;0.30;;;18.70;55.30;;;;;;4941872;29;20202;-77
2021/04/21 13:47:33;;;;;;;0.40;0.40;;;18.20;56.30;;;;;;4940489;29;20217;-77
2021/04/21 13:50:00;;;;;;;0.40;0.40;;;18.40;56.50;;;;;;4941683;29;20197;-76
2021/04/21 13:52:27;;;;;;;0.40;0.40;;;18.50;57.00;;;;;;4942018;29;20266;-77
2021/04/21 13:54:55;;;;;;;0.45;0.45;;;18.60;55.50;;;;;;4939530;29;20226;-76
2021/04/21 13:57:22;;;;;;;0.38;0.38;;;18.60;56.90;;;;;;4937830;29;20213;-77
2021/04/21 13:59:49;;;;;;;0.38;0.38;;;18.50;56.20;;;;;;4938741;29;20284;-76
2021/04/21 14:02:16;;;;;;;0.30;0.30;;;18.20;56.30;;;;;;4937623;29;20667;-75
2021/04/21 14:04:43;;;;;;;0.40;0.40;;;18.30;55.30;;;;;;4937548;29;20719;-76
2021/04/21 14:07:10;;;;;;;0.30;0.30;;;18.30;56.60;;;;;;4937300;29;20208;-76
2021/04/21 14:09:39;;;;;;;0.40;0.40;;;18.30;57.30;;;;;;4937580;29;20198;-77
2021/04/21 14:12:08;;;;;;;0.40;0.40;;;18.50;58.00;;;;;;4937222;29;20253;-77
2021/04/21 14:14:35;;;;;;;0.30;0.30;;;18.40;57.20;;;;;;4936907;29;20255;-77
2021/04/21 14:17:02;;;;;;;0.40;0.40;;;18.50;57.70;;;;;;4937508;29;20249;-77
2021/04/21 14:19:30;;;;;;;0.30;0.30;;;18.60;56.50;;;;;;4937305;29;20559;-76
2021/04/21 14:21:57;;;;;;;0.40;0.40;;;18.90;57.50;;;;;;4937030;29;20658;-77
2021/04/21 14:24:24;;;;;;;0.40;0.40;;;18.80;56.90;;;;;;4937058;29;20230;-77
2021/04/21 14:26:51;;;;;;;0.40;0.40;;;18.20;57.00;;;;;;4937544;29;20194;-77
2021/04/21 14:29:19;;;;;;;0.40;0.40;;;18.10;57.80;;;;;;4937429;29;20261;-77
2021/04/21 14:31:46;;;;;;;0.40;0.40;;;18.30;56.50;;;;;;4932417;29;20198;-78
2021/04/21 14:34:13;;;;;;;0.40;0.40;;;18.60;56.10;;;;;;4937486;29;20602;-77
2021/04/21 14:36:41;;;;;;;0.30;0.30;;;18.70;53.80;;;;;;4936617;29;20210;-76
2021/04/21 14:39:09;;;;;;;0.40;0.40;;;18.70;53.80;;;;;;4943319;29;20198;-77
2021/04/21 14:41:37;;;;;;;0.30;0.30;;;18.90;54.30;;;;;;4947597;29;20622;-77
2021/04/21 14:44:06;;;;;;;0.30;0.30;;;18.90;54.70;;;;;;4945078;29;20301;-77
2021/04/21 14:46:34;;;;;;;0.40;0.40;;;19.20;54.40;;;;;;4946083;28;20201;-77
2021/04/21 14:49:02;;;;;;;0.30;0.30;;;19.50;53.00;;;;;;4938162;29;20198;-76
2021/04/21 14:51:29;;;;;;;0.20;0.20;;;19.60;54.20;;;;;;4944916;29;20269;-77
2021/04/21 14:53:56;;;;;;;0.30;0.30;;;20.20;53.20;;;;;;4947084;28;20221;-77
2021/04/21 14:56:25;;;;;;;0.30;0.30;;;20.60;51.70;;;;;;4945535;29;20209;-77
2021/04/21 14:58:52;;;;;;;0.20;0.20;;;21.10;50.90;;;;;;4948319;29;20631;-77
2021/04/21 15:01:19;;;;;;;0.20;0.20;;;20.90;49.90;;;;;;4937322;29;20225;-77
2021/04/21 15:03:47;;;;;;;0.30;0.30;;;21.90;51.40;;;;;;4948616;29;20305;-77
2021/04/21 15:06:15;;;;;;;0.30;0.30;;;21.30;49.60;;;;;;4943729;29;20206;-77
2021/04/21 15:09:00;;;;;;;0.40;0.40;;;21.00;50.80;;;;;;4944572;29;20206;-76
2021/04/21 15:11:27;;;;;;;0.20;0.20;;;20.70;51.20;;;;;;4946886;29;20714;-76
2021/04/21 15:13:55;;;;;;;0.28;0.28;;;20.40;52.30;;;;;;4947851;29;20291;-77
2021/04/21 15:16:24;;;;;;;0.32;0.32;;;20.10;52.20;;;;;;4937436;29;20213;-78
2021/04/21 15:18:53;;;;;;;0.30;0.30;;;20.40;52.00;;;;;;4947380;29;20202;-76
2021/04/21 15:21:22;;;;;;;0.30;0.30;;;20.40;52.00;;;;;;4936587;29;20222;-75
2021/04/21 15:23:49;;;;;;;0.30;0.30;;;20.60;51.60;;;;;;4949639;29;20237;-76
2021/04/21 15:26:17;;;;;;;0.20;0.20;;;20.80;50.90;;;;;;4951668;29;20198;-76
2021/04/21 15:28:44;;;;;;;0.20;0.20;;;21.20;50.00;;;;;;4951354;29;20248;-77
2021/04/21 15:31:12;;;;;;;0.20;0.20;;;21.40;49.60;;;;;;4937002;29;20202;-78
2021/04/21 15:33:39;;;;;;;0.20;0.20;;;20.70;50.90;;;;;;4943787;29;20284;-77
2021/04/21 15:36:09;;;;;;;0.30;0.30;;;20.80;51.60;;;;;;4945687;29;20201;-77
2021/04/21 15:38:37;;;;;;;0.20;0.20;;;20.50;51.30;;;;;;4935564;29;20198;-77
2021/04/21 15:41:05;;;;;;;0.30;0.30;;;20.40;52.00;;;;;;4943262;29;20213;-77
2021/04/21 15:43:32;;;;;;;0.30;0.30;;;20.00;52.90;;;;;;4944316;28;20297;-77
2021/04/21 15:45:59;;;;;;;0.40;0.40;;;19.50;53.60;;;;;;4946620;29;20202;-76
2021/04/21 15:48:26;;;;;;;0.40;0.40;;;18.90;54.90;;;;;;4945057;29;20198;-76
2021/04/21 15:50:55;;;;;;;0.43;0.43;;;19.50;67.90;;;;;;4936455;29;20249;-77
2021/04/21 15:53:23;;;;;;;0.30;0.30;;;19.60;54.30;;;;;;4935576;29;20226;-76
2021/04/21 15:55:50;;;;;;;0.30;0.30;;;19.80;54.30;;;;;;4935393;29;20261;-77
2021/04/21 15:58:27;;;;;;;0.20;0.20;;;20.00;53.30;;;;;;4935854;29;20213;-75
2021/04/21 16:00:55;;;;;;;0.30;0.30;;;20.10;53.30;;;;;;4934847;29;20226;-78
2021/04/21 16:03:22;;;;;;;0.30;0.30;;;19.90;53.90;;;;;;4934578;29;20226;-77
2021/04/21 16:05:49;;;;;;;0.40;0.40;;;19.70;53.90;;;;;;4934689;29;20210;-76
2021/04/21 16:08:16;;;;;;;0.30;0.30;;;19.90;52.60;;;;;;4934510;29;20206;-77
2021/04/21 16:10:44;;;;;;;0.40;0.40;;;20.20;51.90;;;;;;4935029;29;20202;-77
2021/04/21 16:13:12;;;;;;;0.30;0.30;;;19.90;52.30;;;;;;4934866;29;20222;-77
2021/04/21 16:15:39;;;;;;;0.30;0.30;;;19.90;52.00;;;;;;4934507;29;20202;-77
2021/04/21 16:18:06;;;;;;;0.30;0.30;;;19.70;50.50;;;;;;4933734;29;20605;-76
2021/04/21 16:20:34;;;;;;;0.30;0.30;;;19.80;50.40;;;;;;4934191;29;20702;-76
2021/04/21 16:23:01;;;;;;;0.30;0.30;;;20.00;50.00;;;;;;4934456;29;20261;-76
2021/04/21 16:25:28;;;;;;;0.20;0.20;;;20.50;48.50;;;;;;4936720;29;20209;-77
2021/04/21 16:27:55;;;;;;;0.30;0.30;;;20.00;48.60;;;;;;4935094;29;20235;-77
2021/04/21 16:30:25;;;;;;;0.20;0.20;;;19.70;49.00;;;;;;4934009;29;20630;-76
2021/04/21 16:32:53;;;;;;;0.20;0.20;;;21.30;56.80;;;;;;4934034;29;20265;-75
2021/04/21 16:35:22;;;;;;;0.20;0.20;;;21.70;47.00;;;;;;4915155;29;20640;-75
2021/04/21 16:37:49;;;;;;;0.20;0.20;;;21.80;44.30;;;;;;4922761;29;20197;-75
2021/04/21 16:40:17;;;;;;;0.30;0.30;;;21.80;43.30;;;;;;4934105;29;20281;-75
2021/04/21 16:42:45;;;;;;;0.30;0.30;;;20.60;56.60;;;;;;4934731;29;20206;-75
2021/04/21 16:45:15;;;;;;;0.30;0.30;;;20.50;44.00;;;;;;4949129;29;20303;-76
2021/04/21 16:47:43;;;;;;;0.40;0.40;;;20.10;41.90;;;;;;4954440;29;20201;-75
2021/04/21 16:50:13;;;;;;;0.40;0.40;;;19.60;42.40;;;;;;4955587;29;20205;-77
2021/04/21 16:52:43;;;;;;;0.40;0.40;;;19.60;56.90;;;;;;4953612;28;20213;-76
2021/04/21 16:55:12;;;;;;;0.40;0.40;;;19.60;43.20;;;;;;4935118;29;20217;-76
2021/04/21 16:57:43;;;;;;;0.30;0.30;;;19.70;44.40;;;;;;4936342;29;20205;-76
2021/04/21 17:00:18;;;;;;;0.30;0.30;;;18.90;45.00;;;;;;4944021;29;20269;-77
2021/04/21 17:02:46;;;;;;;0.40;0.40;;;18.50;59.50;;;;;;4933682;29;20257;-76
2021/04/21 17:05:16;;;;;;;0.30;0.30;;;18.60;46.10;;;;;;4933824;29;20226;-76
2021/04/21 17:07:51;;;;;;;0.40;0.40;;;18.60;46.00;;;;;;4938888;29;20198;-76
2021/04/21 17:10:18;;;;;;;0.40;0.40;;;18.60;45.90;;;;;;4933734;29;20389;-77
2021/04/21 17:12:45;;;;;;;0.40;0.40;;;18.70;61.20;;;;;;4933802;29;20209;-76
2021/04/21 17:15:13;;;;;;;0.40;0.40;;;18.30;47.20;;;;;;4948583;29;20206;-76
2021/04/21 17:17:41;;;;;;;0.50;0.50;;;18.30;47.80;;;;;;4934414;29;20281;-78
2021/04/21 17:20:10;;;;;;;0.38;0.38;;;;;;;;;;4934389;29;20273;-77
2021/04/21 17:22:37;;;;;;;0.40;0.40;;;17.50;88.30;;;;;;4934477;29;20213;-76
2021/04/21 17:25:06;;;;;;;0.40;0.40;;;17.40;49.00;;;;;;4933595;29;20679;-75
2021/04/21 17:27:33;;;;;;;0.40;0.40;;;17.30;49.90;;;;;;4933976;29;21250;-75
2021/04/21 17:30:01;;;;;;;0.40;0.40;;;17.10;50.70;;;;;;4935463;29;20308;-75